Buoy 44843

sailwx.info

Track history (hours):
 
Tides and Currents Weather Stations Pressure Air Temp Water Temp Dewpoint Dewpoint Depression Visibility Wind Speed Wind Dir Waves Ship Positions

Drifting buoy 44843

Last reported at 2018-Feb-18 23:00 UTC. Time now 2018-Feb-19 00:07 UTC.
Position N 35°35' W 071°46'.

Date/timePositionNaut miles runAvg speedWind from/ knotsBaromVisibWave heightAir tempDewpointWater temp
2018-Feb-18 23:00N 35°35' W 071°46'1 5.2
2018-Feb-18 22:45N 35°37' W 071°46'0 0.0
2018-Feb-18 22:30N 35°37' W 071°46'0 1.0
2018-Feb-18 22:00N 35°37' W 071°45'2 4.1
2018-Feb-18 21:30N 35°38' W 071°44'0 0.0
2018-Feb-18 21:15N 35°38' W 071°44'0 0.0
2018-Feb-18 21:00N 35°38' W 071°44'0 0.0
2018-Feb-18 20:00N 35°38' W 071°44'414.3
2018-Feb-18 19:45N 35°41' W 071°41'5 3.3
2018-Feb-18 18:15N 35°46' W 071°40'1 0.5
2018-Feb-18 16:00N 35°47' W 071°39'0 0.0
2018-Feb-18 15:45N 35°47' W 071°39'0 0.0
2018-Feb-18 15:15N 35°47' W 071°39'2 8.2
2018-Feb-18 15:00N 35°49' W 071°40'0 0.0
2018-Feb-18 14:45N 35°49' W 071°40'0 0.0
2018-Feb-18 14:30N 35°49' W 071°40'2 7.2
2018-Feb-18 14:15N 35°50' W 071°40'0 0.0
2018-Feb-18 14:00N 35°50' W 071°40'0 0.0
2018-Feb-18 13:30N 35°50' W 071°40'0 0.0
2018-Feb-18 13:15N 35°50' W 071°40'310.4
2018-Feb-18 13:00N 35°53' W 071°41'0 0.0
2018-Feb-18 12:45N 35°53' W 071°41'0 0.0
2018-Feb-18 11:45N 35°53' W 071°41'2 7.2
2018-Feb-18 11:30N 35°55' W 071°41'0 0.0
2018-Feb-18 11:15N 35°55' W 071°41'0 0.0
2018-Feb-18 10:15N 35°55' W 071°41'0 1.9
2018-Feb-18 10:00N 35°55' W 071°42'0 0.0
2018-Feb-18 09:45N 35°55' W 071°42'1 3.1
2018-Feb-18 09:30N 35°55' W 071°43'3 3.0
2018-Feb-18 08:30N 35°52' W 071°43'0 0.0
2018-Feb-18 08:15N 35°52' W 071°43'0 0.0
2018-Feb-18 03:30N 35°52' W 071°43'1 1.0
2018-Feb-18 02:45N 35°52' W 071°43'0 0.0
2018-Feb-18 02:00N 35°52' W 071°43'1 3.9
2018-Feb-18 01:45N 35°52' W 071°42'0 0.0
2018-Feb-18 01:15N 35°52' W 071°42'0 1.9
2018-Feb-18 01:00N 35°52' W 071°41'0 0.0
2018-Feb-18 00:45N 35°52' W 071°41'0 1.9
2018-Feb-18 00:30N 35°52' W 071°42'0 1.9
2018-Feb-18 00:15N 35°52' W 071°41'1 4.6
2018-Feb-18 00:00N 35°51' W 071°40'0 0.0
2018-Feb-17 23:15N 35°51' W 071°40'0 0.0
2018-Feb-17 23:00N 35°51' W 071°40'0 1.9
2018-Feb-17 22:45N 35°51' W 071°40'0 0.0
2018-Feb-17 22:30N 35°51' W 071°40'0 0.0
2018-Feb-17 22:15N 35°51' W 071°40'2 4.1
2018-Feb-17 21:45N 35°50' W 071°37'0 0.0
2018-Feb-17 20:15N 35°50' W 071°37'1 3.1
2018-Feb-17 20:00N 35°51' W 071°37'0 0.0
2018-Feb-17 18:30N 35°51' W 071°37'310.6
2018-Feb-17 18:15N 35°53' W 071°34'1 0.6
2018-Feb-17 16:15N 35°52' W 071°33'2 2.7
2018-Feb-17 15:30N 35°53' W 071°31'0 0.0
2018-Feb-17 15:15N 35°53' W 071°31'2 2.5
2018-Feb-17 14:30N 35°55' W 071°30'0 0.0
2018-Feb-17 14:00N 35°55' W 071°30'0 0.0
2018-Feb-17 13:15N 35°55' W 071°30'2 7.5
2018-Feb-17 13:00N 35°56' W 071°29'0 0.0
2018-Feb-17 12:45N 35°56' W 071°29'1 0.8
2018-Feb-17 12:00N 35°57' W 071°29'0 0.0
2018-Feb-17 11:45N 35°57' W 071°29'2 7.6
2018-Feb-17 11:30N 35°58' W 071°28'0 0.0
2018-Feb-17 11:15N 35°58' W 071°28'2 2.0
2018-Feb-17 10:15N 36°00' W 071°26'0 0.0
2018-Feb-17 10:00N 36°00' W 071°26'0 0.0
2018-Feb-17 08:45N 36°00' W 071°26'728.8
2018-Feb-17 08:30N 36°07' W 071°26'0 0.0
2018-Feb-17 03:15N 36°07' W 071°26'0 0.0
2018-Feb-17 03:00N 36°07' W 071°26'2 2.5
2018-Feb-17 02:15N 36°09' W 071°26'0 0.0
2018-Feb-17 02:00N 36°09' W 071°26'0 1.0
2018-Feb-17 01:30N 36°09' W 071°26'0 0.0
2018-Feb-17 01:15N 36°09' W 071°26'1 1.9
2018-Feb-17 00:45N 36°09' W 071°25'2 9.3
2018-Feb-17 00:30N 36°11' W 071°27'0 0.0
2018-Feb-16 23:45N 36°11' W 071°27'0 0.0
2018-Feb-16 23:30N 36°11' W 071°27'1 2.4
2018-Feb-16 23:15N 36°11' W 071°27'310.4
2018-Feb-16 23:00N 36°14' W 071°28'0 0.0
2018-Feb-16 22:45N 36°14' W 071°28'0 0.0
2018-Feb-16 22:00N 36°14' W 071°28'0 0.0
2018-Feb-16 21:15N 36°14' W 071°28'2 1.5
2018-Feb-16 20:15N 36°15' W 071°29'0 0.0
2018-Feb-16 18:45N 36°15' W 071°29'310.8
2018-Feb-16 18:30N 36°16' W 071°32'0 0.0
2018-Feb-16 16:30N 36°16' W 071°32'1 1.3
2018-Feb-16 15:45N 36°16' W 071°34'0 0.0
2018-Feb-16 15:00N 36°16' W 071°34'0 0.0
2018-Feb-16 14:45N 36°16' W 071°34'0 0.0
2018-Feb-16 14:15N 36°16' W 071°34'1 3.9
2018-Feb-16 14:00N 36°16' W 071°35'0 0.0
2018-Feb-16 13:30N 36°16' W 071°35'1 3.9
2018-Feb-16 13:15N 36°16' W 071°36'0 0.6
2018-Feb-16 12:30N 36°16' W 071°37'0 1.9
2018-Feb-16 12:15N 36°16' W 071°36'0 0.0
2018-Feb-16 11:45N 36°16' W 071°36'0 0.0
2018-Feb-16 11:30N 36°16' W 071°36'1 1.9
2018-Feb-16 10:45N 36°16' W 071°38'1 3.1
2018-Feb-16 10:30N 36°16' W 071°38'0 0.0
2018-Feb-16 09:15N 36°16' W 071°38'1 2.4
2018-Feb-16 09:00N 36°16' W 071°38'519.5
2018-Feb-16 08:45N 36°17' W 071°44'0 0.0
2018-Feb-16 07:15N 36°17' W 071°44'0 0.0
2018-Feb-16 07:00N 36°17' W 071°44'1 0.3
2018-Feb-16 03:30N 36°17' W 071°46'0 0.0
2018-Feb-16 02:30N 36°17' W 071°46'0 0.0
2018-Feb-16 02:00N 36°17' W 071°46'1 3.9
2018-Feb-16 01:45N 36°17' W 071°47'1 1.0
2018-Feb-16 01:00N 36°17' W 071°47'0 0.0
2018-Feb-16 00:45N 36°17' W 071°47'0 0.0
2018-Feb-16 00:15N 36°17' W 071°47'1 3.9
2018-Feb-16 00:00N 36°17' W 071°49'0 0.0
2018-Feb-15 23:30N 36°17' W 071°49'1 4.6
2018-Feb-15 23:15N 36°17' W 071°50'0 0.0
2018-Feb-15 22:30N 36°17' W 071°50'1 2.4
2018-Feb-15 22:15N 36°17' W 071°50'2 8.1
2018-Feb-15 22:00N 36°17' W 071°52'0 0.0
2018-Feb-15 21:45N 36°17' W 071°52'0 0.0
2018-Feb-15 20:45N 36°17' W 071°52'0 0.0
2018-Feb-15 20:30N 36°17' W 071°52'0 0.0
2018-Feb-15 20:15N 36°17' W 071°52'5 3.4
2018-Feb-15 18:45N 36°15' W 071°58'0 0.0
2018-Feb-15 16:15N 36°15' W 071°58'1 3.1
2018-Feb-15 16:00N 36°14' W 071°58'1 1.5
2018-Feb-15 15:15N 36°14' W 071°59'1 1.5
2018-Feb-15 14:30N 36°13' W 072°00'0 0.0
2018-Feb-15 14:15N 36°13' W 072°00'0 0.0
2018-Feb-15 13:45N 36°13' W 072°00'1 4.6
2018-Feb-15 13:30N 36°13' W 072°01'0 0.0
2018-Feb-15 12:45N 36°13' W 072°01'1 1.0
2018-Feb-15 12:00N 36°12' W 072°02'1 4.6
2018-Feb-15 11:45N 36°11' W 072°03'0 0.0
2018-Feb-15 11:15N 36°11' W 072°03'0 0.0
2018-Feb-15 11:00N 36°11' W 072°03'1 5.2
2018-Feb-15 10:45N 36°10' W 072°04'0 0.0
2018-Feb-15 09:45N 36°10' W 072°04'0 1.9
2018-Feb-15 09:30N 36°10' W 072°04'0 1.9
2018-Feb-15 09:15N 36°10' W 072°05'2 6.3
2018-Feb-15 09:00N 36°10' W 072°07'0 0.0
2018-Feb-15 07:30N 36°10' W 072°07'519.8
2018-Feb-15 07:15N 36°06' W 072°11'0 0.0
2018-Feb-15 03:00N 36°06' W 072°11'1 3.9
2018-Feb-15 02:45N 36°06' W 072°12'0 0.0
2018-Feb-15 02:15N 36°06' W 072°12'0 1.9
2018-Feb-15 02:00N 36°06' W 072°13'1 1.0
2018-Feb-15 01:15N 36°07' W 072°13'1 2.4
2018-Feb-15 01:00N 36°06' W 072°13'1 1.5
2018-Feb-15 00:30N 36°07' W 072°14'0 0.0
2018-Feb-15 00:00N 36°07' W 072°14'0 0.0
2018-Feb-14 23:30N 36°07' W 072°14'1 5.8
2018-Feb-14 23:15N 36°07' W 072°16'0 0.0
2018-Feb-14 23:00N 36°07' W 072°16'0 0.0
2018-Feb-14 22:45N 36°07' W 072°16'1 2.4
2018-Feb-14 22:30N 36°07' W 072°16'0 0.0
2018-Feb-14 22:15N 36°07' W 072°16'3 1.8
2018-Feb-14 20:45N 36°09' W 072°18'2 7.5
2018-Feb-14 20:30N 36°10' W 072°20'4 2.8
2018-Feb-14 19:00N 36°12' W 072°25'0 0.0
2018-Feb-14 18:45N 36°12' W 072°25'0 0.2
2018-Feb-14 16:30N 36°12' W 072°25'0 0.0
2018-Feb-14 15:45N 36°12' W 072°25'0 0.0
2018-Feb-14 15:30N 36°12' W 072°25'0 0.0
2018-Feb-14 15:00N 36°12' W 072°25'1 4.6
2018-Feb-14 14:45N 36°11' W 072°26'0 0.0
2018-Feb-14 14:00N 36°11' W 072°26'0 1.9
2018-Feb-14 13:45N 36°11' W 072°27'0 0.0
2018-Feb-14 13:30N 36°11' W 072°27'1 3.1
2018-Feb-14 13:15N 36°11' W 072°28'1 4.6
2018-Feb-14 13:00N 36°10' W 072°29'0 0.0
2018-Feb-14 12:15N 36°10' W 072°29'1 3.1
2018-Feb-14 12:00N 36°10' W 072°29'1 3.1
2018-Feb-14 11:45N 36°09' W 072°30'2 6.2
2018-Feb-14 11:30N 36°10' W 072°29'2 3.1
2018-Feb-14 11:00N 36°09' W 072°30'0 0.0
2018-Feb-14 10:45N 36°09' W 072°30'0 0.0
2018-Feb-14 10:15N 36°09' W 072°30'1 4.6
2018-Feb-14 10:00N 36°08' W 072°31'1 1.7
2018-Feb-14 09:15N 36°07' W 072°32'0 0.0
2018-Feb-14 09:00N 36°07' W 072°32'0 0.0
2018-Feb-14 08:30N 36°07' W 072°32'0 0.0
2018-Feb-14 07:45N 36°07' W 072°32'2 7.5
2018-Feb-14 07:30N 36°06' W 072°34'0 0.0
2018-Feb-14 03:15N 36°06' W 072°34'0 0.0
2018-Feb-14 02:30N 36°06' W 072°34'0 0.0
2018-Feb-14 01:45N 36°06' W 072°34'0 1.9
2018-Feb-14 01:30N 36°06' W 072°34'1 2.4
2018-Feb-14 01:15N 36°05' W 072°34'1 2.4
2018-Feb-14 01:00N 36°06' W 072°34'1 3.1
2018-Feb-14 00:45N 36°05' W 072°35'0 0.0
2018-Feb-14 00:30N 36°05' W 072°35'0 0.0
2018-Feb-14 00:00N 36°05' W 072°35'0 0.0
2018-Feb-13 23:45N 36°05' W 072°35'1 3.1
2018-Feb-13 23:30N 36°06' W 072°35'0 0.0
2018-Feb-13 23:15N 36°06' W 072°35'0 0.0
2018-Feb-13 23:00N 36°06' W 072°35'0 0.0
2018-Feb-13 22:45N 36°06' W 072°35'1 1.0
2018-Feb-13 22:00N 36°05' W 072°36'0 0.0
2018-Feb-13 21:45N 36°05' W 072°36'0 0.0
2018-Feb-13 21:30N 36°05' W 072°36'1 1.2
2018-Feb-13 21:00N 36°06' W 072°36'0 0.0
2018-Feb-13 20:45N 36°06' W 072°36'2 1.0
2018-Feb-13 19:15N 36°07' W 072°37'0 0.0
2018-Feb-13 19:00N 36°07' W 072°37'1 0.3
2018-Feb-13 16:00N 36°07' W 072°38'0 0.0
2018-Feb-13 15:45N 36°07' W 072°38'0 0.0
2018-Feb-13 15:15N 36°07' W 072°38'0 0.0
2018-Feb-13 15:00N 36°07' W 072°38'0 0.0
2018-Feb-13 14:15N 36°07' W 072°38'0 0.0
2018-Feb-13 14:00N 36°07' W 072°38'0 1.9
2018-Feb-13 13:45N 36°07' W 072°38'0 0.0
2018-Feb-13 13:30N 36°07' W 072°38'0 0.0
2018-Feb-13 12:15N 36°07' W 072°38'0 0.0
2018-Feb-13 12:00N 36°07' W 072°38'0 0.0
2018-Feb-13 11:45N 36°07' W 072°38'1 0.6
2018-Feb-13 10:45N 36°06' W 072°38'1 1.2
2018-Feb-13 10:15N 36°07' W 072°38'0 0.6
2018-Feb-13 09:30N 36°07' W 072°39'0 1.9
2018-Feb-13 09:15N 36°07' W 072°38'0 0.0
2018-Feb-13 09:00N 36°07' W 072°38'1 0.6
2018-Feb-13 07:45N 36°07' W 072°39'0 0.0
2018-Feb-13 03:30N 36°07' W 072°39'0 0.0
2018-Feb-13 03:00N 36°07' W 072°39'0 0.0
2018-Feb-13 02:45N 36°07' W 072°39'1 0.8
2018-Feb-13 02:00N 36°08' W 072°39'1 2.4
2018-Feb-13 01:45N 36°07' W 072°39'1 2.4
2018-Feb-13 01:30N 36°08' W 072°39'1 3.1
2018-Feb-13 01:15N 36°07' W 072°40'2 7.5
2018-Feb-13 01:00N 36°08' W 072°38'0 0.6
2018-Feb-13 00:15N 36°08' W 072°38'0 0.0
2018-Feb-13 00:00N 36°08' W 072°38'0 1.9
2018-Feb-12 23:45N 36°08' W 072°39'0 0.0
2018-Feb-12 23:30N 36°08' W 072°39'0 0.0
2018-Feb-12 23:15N 36°08' W 072°39'1 0.6
2018-Feb-12 22:15N 36°08' W 072°39'0 0.0
2018-Feb-12 22:00N 36°08' W 072°39'0 1.9
2018-Feb-12 21:45N 36°08' W 072°38'1 0.8
2018-Feb-12 21:00N 36°07' W 072°38'2 1.0
2018-Feb-12 19:30N 36°07' W 072°40'729.0
2018-Feb-12 19:15N 36°03' W 072°48'0 0.0
2018-Feb-12 16:15N 36°03' W 072°48'0 0.0
2018-Feb-12 15:30N 36°03' W 072°48'3 3.6
2018-Feb-12 14:45N 36°02' W 072°51'0 0.0
2018-Feb-12 14:30N 36°02' W 072°51'0 0.0
2018-Feb-12 14:15N 36°02' W 072°51'0 1.9
2018-Feb-12 14:00N 36°02' W 072°52'310.8
2018-Feb-12 13:45N 36°01' W 072°55'0 0.0
2018-Feb-12 13:00N 36°01' W 072°55'0 0.0
2018-Feb-12 12:45N 36°01' W 072°55'0 0.0
2018-Feb-12 12:30N 36°01' W 072°55'310.8
2018-Feb-12 12:15N 35°59' W 072°58'0 0.5
2018-Feb-12 11:15N 35°59' W 072°57'0 1.9
2018-Feb-12 11:00N 35°59' W 072°58'310.0
2018-Feb-12 10:45N 35°59' W 073°01'0 0.0
2018-Feb-12 09:45N 35°59' W 073°01'313.7
2018-Feb-12 09:30N 35°57' W 073°04'10 6.8
2018-Feb-12 08:00N 35°51' W 073°14'0 0.0
2018-Feb-12 07:45N 35°51' W 073°14'3 0.6
2018-Feb-12 03:15N 35°49' W 073°17'0 0.0
2018-Feb-12 03:00N 35°49' W 073°17'2 2.1
2018-Feb-12 02:15N 35°49' W 073°19'0 0.0
2018-Feb-12 01:30N 35°49' W 073°19'2 2.7
2018-Feb-12 00:45N 35°47' W 073°20'0 0.0
2018-Feb-12 00:30N 35°47' W 073°20'2 6.3
2018-Feb-12 00:15N 35°46' W 073°22'0 1.9
2018-Feb-12 00:00N 35°46' W 073°22'311.2
2018-Feb-11 23:45N 35°44' W 073°24'1 0.5
2018-Feb-11 22:30N 35°43' W 073°24'2 9.2
2018-Feb-11 22:15N 35°42' W 073°26'0 0.5
2018-Feb-11 21:15N 35°42' W 073°27'0 0.0
2018-Feb-11 21:00N 35°42' W 073°27'3 2.1
2018-Feb-11 19:30N 35°40' W 073°29'7 2.3
2018-Feb-11 16:30N 35°34' W 073°35'0 0.0
2018-Feb-11 16:00N 35°34' W 073°35'2 7.6
2018-Feb-11 15:45N 35°33' W 073°37'0 0.0
2018-Feb-11 15:00N 35°33' W 073°37'0 0.0
2018-Feb-11 14:45N 35°33' W 073°37'1 1.2
2018-Feb-11 14:15N 35°32' W 073°37'2 7.6
2018-Feb-11 14:00N 35°31' W 073°38'0 0.0
2018-Feb-11 13:15N 35°31' W 073°38'0 0.0
2018-Feb-11 13:00N 35°31' W 073°38'1 3.1
2018-Feb-11 12:45N 35°31' W 073°38'0 0.0
2018-Feb-11 12:30N 35°31' W 073°38'2 3.1
2018-Feb-11 11:45N 35°29' W 073°40'0 2.0
2018-Feb-11 11:30N 35°29' W 073°41'2 7.6
2018-Feb-11 11:15N 35°28' W 073°43'0 0.0
2018-Feb-11 11:00N 35°28' W 073°43'0 0.0
2018-Feb-11 10:00N 35°28' W 073°43'2 9.3
2018-Feb-11 09:45N 35°26' W 073°44'0 0.0
2018-Feb-11 08:15N 35°26' W 073°44'727.4
2018-Feb-11 08:00N 35°22' W 073°50'0 0.0
2018-Feb-11 03:30N 35°22' W 073°50'0 0.0
2018-Feb-11 02:45N 35°22' W 073°50'1 2.4
2018-Feb-11 02:30N 35°21' W 073°50'1 2.4
2018-Feb-11 02:00N 35°20' W 073°50'0 0.0
2018-Feb-11 01:45N 35°20' W 073°50'0 0.7
2018-Feb-11 01:00N 35°20' W 073°51'1 3.1
2018-Feb-11 00:45N 35°19' W 073°52'0 0.0
2018-Feb-11 00:30N 35°19' W 073°52'1 3.1
2018-Feb-11 00:15N 35°19' W 073°52'0 0.0
2018-Feb-11 00:00N 35°19' W 073°52'5 4.3
2018-Feb-10 22:45N 35°15' W 073°57'0 0.0
2018-Feb-10 22:30N 35°15' W 073°57'1 0.8
2018-Feb-10 21:30N 35°16' W 073°58'0 0.0
2018-Feb-10 21:15N 35°16' W 073°58'310.6
2018-Feb-10 21:00N 35°14' W 074°00'0 0.0
2018-Feb-10 19:45N 35°14' W 074°00'0 0.0
2018-Feb-10 19:30N 35°14' W 074°00'3 0.9
2018-Feb-10 16:15N 35°11' W 074°00'0 0.0
2018-Feb-10 15:15N 35°11' W 074°00'1 1.6
2018-Feb-10 14:30N 35°10' W 074°00'0 0.0
2018-Feb-10 13:45N 35°10' W 074°00'0 0.0
2018-Feb-10 13:30N 35°10' W 074°00'1 4.8
2018-Feb-10 13:15N 35°08' W 074°00'0 0.0
2018-Feb-10 13:00N 35°08' W 074°00'1 4.8
2018-Feb-10 12:45N 35°07' W 074°00'0 0.0
2018-Feb-10 12:15N 35°07' W 074°00'0 0.0
2018-Feb-10 12:00N 35°07' W 074°00'0 0.0
2018-Feb-10 11:45N 35°07' W 074°00'0 0.0
2018-Feb-10 11:30N 35°07' W 074°00'1 3.1
2018-Feb-10 11:15N 35°07' W 073°59'1 3.1
2018-Feb-10 11:00N 35°06' W 074°00'0 0.0
2018-Feb-10 10:30N 35°06' W 074°00'2 4.1
2018-Feb-10 10:00N 35°04' W 074°01'0 0.0
2018-Feb-10 09:00N 35°04' W 074°01'0 0.0
2018-Feb-10 08:45N 35°04' W 074°01'0 0.0
2018-Feb-10 08:30N 35°04' W 074°01'625.9
2018-Feb-10 08:15N 34°58' W 074°04'1 0.1
2018-Feb-10 03:00N 34°58' W 074°04'0 0.0
2018-Feb-10 02:45N 34°58' W 074°04'0 0.0
2018-Feb-10 02:15N 34°58' W 074°04'1 2.4
2018-Feb-10 02:00N 34°57' W 074°04'1 2.0
2018-Feb-10 01:15N 34°57' W 074°06'1 4.6
2018-Feb-10 01:00N 34°56' W 074°05'0 1.0
2018-Feb-10 00:30N 34°56' W 074°05'0 0.0
2018-Feb-10 00:15N 34°56' W 074°05'2 2.7
2018-Feb-09 23:30N 34°55' W 074°07'0 0.0
2018-Feb-09 23:15N 34°55' W 074°07'1 2.4
2018-Feb-09 22:45N 34°53' W 074°07'2 2.1
2018-Feb-09 21:45N 34°52' W 074°08'0 0.0
2018-Feb-09 21:30N 34°52' W 074°08'0 0.0
2018-Feb-09 20:00N 34°52' W 074°08'312.2
2018-Feb-09 19:45N 34°49' W 074°08'1 0.4
2018-Feb-09 16:30N 34°47' W 074°08'0 0.0
2018-Feb-09 15:45N 34°47' W 074°08'0 0.0
2018-Feb-09 15:30N 34°47' W 074°08'0 0.0
2018-Feb-09 15:00N 34°47' W 074°08'1 2.4
2018-Feb-09 14:45N 34°48' W 074°08'0 0.7
2018-Feb-09 14:00N 34°48' W 074°08'0 0.0
2018-Feb-09 13:45N 34°48' W 074°08'1 1.2
2018-Feb-09 13:15N 34°47' W 074°08'0 0.0
2018-Feb-09 13:00N 34°47' W 074°08'0 0.0
2018-Feb-09 12:00N 34°47' W 074°08'0 0.0
2018-Feb-09 11:45N 34°47' W 074°08'0 2.0
2018-Feb-09 11:30N 34°47' W 074°09'0 0.0
2018-Feb-09 11:00N 34°47' W 074°09'0 0.0
2018-Feb-09 10:15N 34°47' W 074°09'0 0.0
2018-Feb-09 10:00N 34°47' W 074°09'0 0.0
2018-Feb-09 09:30N 34°47' W 074°09'1 3.9
2018-Feb-09 09:15N 34°47' W 074°10'0 0.0
2018-Feb-09 08:45N 34°47' W 074°10'519.7
2018-Feb-09 08:30N 34°47' W 074°16'1 0.1
2018-Feb-09 03:15N 34°47' W 074°16'0 0.0
2018-Feb-09 02:45N 34°47' W 074°16'0 0.0
2018-Feb-09 02:30N 34°47' W 074°16'1 1.5
2018-Feb-09 01:45N 34°46' W 074°17'1 2.4
2018-Feb-09 01:30N 34°46' W 074°17'0 0.0
2018-Feb-09 01:00N 34°46' W 074°17'0 0.0
2018-Feb-09 00:45N 34°46' W 074°17'0 0.0
2018-Feb-09 00:30N 34°46' W 074°17'1 1.6
2018-Feb-09 00:00N 34°45' W 074°18'1 3.9
2018-Feb-08 23:45N 34°45' W 074°17'0 0.0
2018-Feb-08 23:30N 34°45' W 074°17'1 2.6
2018-Feb-08 23:00N 34°44' W 074°17'  
Track history (hours):
 
Tides and Currents Weather Stations Pressure Air Temp Water Temp Dewpoint Dewpoint Depression Visibility Wind Speed Wind Dir Waves Ship Positions

Drifting buoy 44843

Last reported at 2018-Feb-18 23:00 UTC. Time now 2018-Feb-19 00:07 UTC.
Position N 35°35' W 071°46'.

Date/timePositionNaut miles runAvg speedWind from/ knotsBaromVisibWave heightAir tempDewpointWater temp
2018-Feb-18 23:00N 35°35' W 071°46'1 5.2
2018-Feb-18 22:45N 35°37' W 071°46'0 0.0
2018-Feb-18 22:30N 35°37' W 071°46'0 1.0
2018-Feb-18 22:00N 35°37' W 071°45'2 4.1
2018-Feb-18 21:30N 35°38' W 071°44'0 0.0
2018-Feb-18 21:15N 35°38' W 071°44'0 0.0
2018-Feb-18 21:00N 35°38' W 071°44'0 0.0
2018-Feb-18 20:00N 35°38' W 071°44'414.3
2018-Feb-18 19:45N 35°41' W 071°41'5 3.3
2018-Feb-18 18:15N 35°46' W 071°40'1 0.5
2018-Feb-18 16:00N 35°47' W 071°39'0 0.0
2018-Feb-18 15:45N 35°47' W 071°39'0 0.0
2018-Feb-18 15:15N 35°47' W 071°39'2 8.2
2018-Feb-18 15:00N 35°49' W 071°40'0 0.0
2018-Feb-18 14:45N 35°49' W 071°40'0 0.0
2018-Feb-18 14:30N 35°49' W 071°40'2 7.2
2018-Feb-18 14:15N 35°50' W 071°40'0 0.0
2018-Feb-18 14:00N 35°50' W 071°40'0 0.0
2018-Feb-18 13:30N 35°50' W 071°40'0 0.0
2018-Feb-18 13:15N 35°50' W 071°40'310.4
2018-Feb-18 13:00N 35°53' W 071°41'0 0.0
2018-Feb-18 12:45N 35°53' W 071°41'0 0.0
2018-Feb-18 11:45N 35°53' W 071°41'2 7.2
2018-Feb-18 11:30N 35°55' W 071°41'0 0.0
2018-Feb-18 11:15N 35°55' W 071°41'0 0.0
2018-Feb-18 10:15N 35°55' W 071°41'0 1.9
2018-Feb-18 10:00N 35°55' W 071°42'0 0.0
2018-Feb-18 09:45N 35°55' W 071°42'1 3.1
2018-Feb-18 09:30N 35°55' W 071°43'3 3.0
2018-Feb-18 08:30N 35°52' W 071°43'0 0.0
2018-Feb-18 08:15N 35°52' W 071°43'0 0.0
2018-Feb-18 03:30N 35°52' W 071°43'1 1.0
2018-Feb-18 02:45N 35°52' W 071°43'0 0.0
2018-Feb-18 02:00N 35°52' W 071°43'1 3.9
2018-Feb-18 01:45N 35°52' W 071°42'0 0.0
2018-Feb-18 01:15N 35°52' W 071°42'0 1.9
2018-Feb-18 01:00N 35°52' W 071°41'0 0.0
2018-Feb-18 00:45N 35°52' W 071°41'0 1.9
2018-Feb-18 00:30N 35°52' W 071°42'0 1.9
2018-Feb-18 00:15N 35°52' W 071°41'1 4.6
2018-Feb-18 00:00N 35°51' W 071°40'0 0.0
2018-Feb-17 23:15N 35°51' W 071°40'0 0.0
2018-Feb-17 23:00N 35°51' W 071°40'0 1.9
2018-Feb-17 22:45N 35°51' W 071°40'0 0.0
2018-Feb-17 22:30N 35°51' W 071°40'0 0.0
2018-Feb-17 22:15N 35°51' W 071°40'2 4.1
2018-Feb-17 21:45N 35°50' W 071°37'0 0.0
2018-Feb-17 20:15N 35°50' W 071°37'1 3.1
2018-Feb-17 20:00N 35°51' W 071°37'0 0.0
2018-Feb-17 18:30N 35°51' W 071°37'310.6
2018-Feb-17 18:15N 35°53' W 071°34'1 0.6
2018-Feb-17 16:15N 35°52' W 071°33'2 2.7
2018-Feb-17 15:30N 35°53' W 071°31'0 0.0
2018-Feb-17 15:15N 35°53' W 071°31'2 2.5
2018-Feb-17 14:30N 35°55' W 071°30'0 0.0
2018-Feb-17 14:00N 35°55' W 071°30'0 0.0
2018-Feb-17 13:15N 35°55' W 071°30'2 7.5
2018-Feb-17 13:00N 35°56' W 071°29'0 0.0
2018-Feb-17 12:45N 35°56' W 071°29'1 0.8
2018-Feb-17 12:00N 35°57' W 071°29'0 0.0
2018-Feb-17 11:45N 35°57' W 071°29'2 7.6
2018-Feb-17 11:30N 35°58' W 071°28'0 0.0
2018-Feb-17 11:15N 35°58' W 071°28'2 2.0
2018-Feb-17 10:15N 36°00' W 071°26'0 0.0
2018-Feb-17 10:00N 36°00' W 071°26'0 0.0
2018-Feb-17 08:45N 36°00' W 071°26'728.8
2018-Feb-17 08:30N 36°07' W 071°26'0 0.0
2018-Feb-17 03:15N 36°07' W 071°26'0 0.0
2018-Feb-17 03:00N 36°07' W 071°26'2 2.5
2018-Feb-17 02:15N 36°09' W 071°26'0 0.0
2018-Feb-17 02:00N 36°09' W 071°26'0 1.0
2018-Feb-17 01:30N 36°09' W 071°26'0 0.0
2018-Feb-17 01:15N 36°09' W 071°26'1 1.9
2018-Feb-17 00:45N 36°09' W 071°25'2 9.3
2018-Feb-17 00:30N 36°11' W 071°27'0 0.0
2018-Feb-16 23:45N 36°11' W 071°27'0 0.0
2018-Feb-16 23:30N 36°11' W 071°27'1 2.4
2018-Feb-16 23:15N 36°11' W 071°27'310.4
2018-Feb-16 23:00N 36°14' W 071°28'0 0.0
2018-Feb-16 22:45N 36°14' W 071°28'0 0.0
2018-Feb-16 22:00N 36°14' W 071°28'0 0.0
2018-Feb-16 21:15N 36°14' W 071°28'2 1.5
2018-Feb-16 20:15N 36°15' W 071°29'0 0.0
2018-Feb-16 18:45N 36°15' W 071°29'310.8
2018-Feb-16 18:30N 36°16' W 071°32'0 0.0
2018-Feb-16 16:30N 36°16' W 071°32'1 1.3
2018-Feb-16 15:45N 36°16' W 071°34'0 0.0
2018-Feb-16 15:00N 36°16' W 071°34'0 0.0
2018-Feb-16 14:45N 36°16' W 071°34'0 0.0
2018-Feb-16 14:15N 36°16' W 071°34'1 3.9
2018-Feb-16 14:00N 36°16' W 071°35'0 0.0
2018-Feb-16 13:30N 36°16' W 071°35'1 3.9
2018-Feb-16 13:15N 36°16' W 071°36'0 0.6
2018-Feb-16 12:30N 36°16' W 071°37'0 1.9
2018-Feb-16 12:15N 36°16' W 071°36'0 0.0
2018-Feb-16 11:45N 36°16' W 071°36'0 0.0
2018-Feb-16 11:30N 36°16' W 071°36'1 1.9
2018-Feb-16 10:45N 36°16' W 071°38'1 3.1
2018-Feb-16 10:30N 36°16' W 071°38'0 0.0
2018-Feb-16 09:15N 36°16' W 071°38'1 2.4
2018-Feb-16 09:00N 36°16' W 071°38'519.5
2018-Feb-16 08:45N 36°17' W 071°44'0 0.0
2018-Feb-16 07:15N 36°17' W 071°44'0 0.0
2018-Feb-16 07:00N 36°17' W 071°44'1 0.3
2018-Feb-16 03:30N 36°17' W 071°46'0 0.0
2018-Feb-16 02:30N 36°17' W 071°46'0 0.0
2018-Feb-16 02:00N 36°17' W 071°46'1 3.9
2018-Feb-16 01:45N 36°17' W 071°47'1 1.0
2018-Feb-16 01:00N 36°17' W 071°47'0 0.0
2018-Feb-16 00:45N 36°17' W 071°47'0 0.0
2018-Feb-16 00:15N 36°17' W 071°47'1 3.9
2018-Feb-16 00:00N 36°17' W 071°49'0 0.0
2018-Feb-15 23:30N 36°17' W 071°49'1 4.6
2018-Feb-15 23:15N 36°17' W 071°50'0 0.0
2018-Feb-15 22:30N 36°17' W 071°50'1 2.4
2018-Feb-15 22:15N 36°17' W 071°50'2 8.1
2018-Feb-15 22:00N 36°17' W 071°52'0 0.0
2018-Feb-15 21:45N 36°17' W 071°52'0 0.0
2018-Feb-15 20:45N 36°17' W 071°52'0 0.0
2018-Feb-15 20:30N 36°17' W 071°52'0 0.0
2018-Feb-15 20:15N 36°17' W 071°52'5 3.4
2018-Feb-15 18:45N 36°15' W 071°58'0 0.0
2018-Feb-15 16:15N 36°15' W 071°58'1 3.1
2018-Feb-15 16:00N 36°14' W 071°58'1 1.5
2018-Feb-15 15:15N 36°14' W 071°59'1 1.5
2018-Feb-15 14:30N 36°13' W 072°00'0 0.0
2018-Feb-15 14:15N 36°13' W 072°00'0 0.0
2018-Feb-15 13:45N 36°13' W 072°00'1 4.6
2018-Feb-15 13:30N 36°13' W 072°01'0 0.0
2018-Feb-15 12:45N 36°13' W 072°01'1 1.0
2018-Feb-15 12:00N 36°12' W 072°02'1 4.6
2018-Feb-15 11:45N 36°11' W 072°03'0 0.0
2018-Feb-15 11:15N 36°11' W 072°03'0 0.0
2018-Feb-15 11:00N 36°11' W 072°03'1 5.2
2018-Feb-15 10:45N 36°10' W 072°04'0 0.0
2018-Feb-15 09:45N 36°10' W 072°04'0 1.9
2018-Feb-15 09:30N 36°10' W 072°04'0 1.9
2018-Feb-15 09:15N 36°10' W 072°05'2 6.3
2018-Feb-15 09:00N 36°10' W 072°07'0 0.0
2018-Feb-15 07:30N 36°10' W 072°07'519.8
2018-Feb-15 07:15N 36°06' W 072°11'0 0.0
2018-Feb-15 03:00N 36°06' W 072°11'1 3.9
2018-Feb-15 02:45N 36°06' W 072°12'0 0.0
2018-Feb-15 02:15N 36°06' W 072°12'0 1.9
2018-Feb-15 02:00N 36°06' W 072°13'1 1.0
2018-Feb-15 01:15N 36°07' W 072°13'1 2.4
2018-Feb-15 01:00N 36°06' W 072°13'1 1.5
2018-Feb-15 00:30N 36°07' W 072°14'0 0.0
2018-Feb-15 00:00N 36°07' W 072°14'0 0.0
2018-Feb-14 23:30N 36°07' W 072°14'1 5.8
2018-Feb-14 23:15N 36°07' W 072°16'0 0.0
2018-Feb-14 23:00N 36°07' W 072°16'0 0.0
2018-Feb-14 22:45N 36°07' W 072°16'1 2.4
2018-Feb-14 22:30N 36°07' W 072°16'0 0.0
2018-Feb-14 22:15N 36°07' W 072°16'3 1.8
2018-Feb-14 20:45N 36°09' W 072°18'2 7.5
2018-Feb-14 20:30N 36°10' W 072°20'4 2.8
2018-Feb-14 19:00N 36°12' W 072°25'0 0.0
2018-Feb-14 18:45N 36°12' W 072°25'0 0.2
2018-Feb-14 16:30N 36°12' W 072°25'0 0.0
2018-Feb-14 15:45N 36°12' W 072°25'0 0.0
2018-Feb-14 15:30N 36°12' W 072°25'0 0.0
2018-Feb-14 15:00N 36°12' W 072°25'1 4.6
2018-Feb-14 14:45N 36°11' W 072°26'0 0.0
2018-Feb-14 14:00N 36°11' W 072°26'0 1.9
2018-Feb-14 13:45N 36°11' W 072°27'0 0.0
2018-Feb-14 13:30N 36°11' W 072°27'1 3.1
2018-Feb-14 13:15N 36°11' W 072°28'1 4.6
2018-Feb-14 13:00N 36°10' W 072°29'0 0.0
2018-Feb-14 12:15N 36°10' W 072°29'1 3.1
2018-Feb-14 12:00N 36°10' W 072°29'1 3.1
2018-Feb-14 11:45N 36°09' W 072°30'2 6.2
2018-Feb-14 11:30N 36°10' W 072°29'2 3.1
2018-Feb-14 11:00N 36°09' W 072°30'0 0.0
2018-Feb-14 10:45N 36°09' W 072°30'0 0.0
2018-Feb-14 10:15N 36°09' W 072°30'1 4.6
2018-Feb-14 10:00N 36°08' W 072°31'1 1.7
2018-Feb-14 09:15N 36°07' W 072°32'0 0.0
2018-Feb-14 09:00N 36°07' W 072°32'0 0.0
2018-Feb-14 08:30N 36°07' W 072°32'0 0.0
2018-Feb-14 07:45N 36°07' W 072°32'2 7.5
2018-Feb-14 07:30N 36°06' W 072°34'0 0.0
2018-Feb-14 03:15N 36°06' W 072°34'0 0.0
2018-Feb-14 02:30N 36°06' W 072°34'0 0.0
2018-Feb-14 01:45N 36°06' W 072°34'0 1.9
2018-Feb-14 01:30N 36°06' W 072°34'1 2.4
2018-Feb-14 01:15N 36°05' W 072°34'1 2.4
2018-Feb-14 01:00N 36°06' W 072°34'1 3.1
2018-Feb-14 00:45N 36°05' W 072°35'0 0.0
2018-Feb-14 00:30N 36°05' W 072°35'0 0.0
2018-Feb-14 00:00N 36°05' W 072°35'0 0.0
2018-Feb-13 23:45N 36°05' W 072°35'1 3.1
2018-Feb-13 23:30N 36°06' W 072°35'0 0.0
2018-Feb-13 23:15N 36°06' W 072°35'0 0.0
2018-Feb-13 23:00N 36°06' W 072°35'0 0.0
2018-Feb-13 22:45N 36°06' W 072°35'1 1.0
2018-Feb-13 22:00N 36°05' W 072°36'0 0.0
2018-Feb-13 21:45N 36°05' W 072°36'0 0.0
2018-Feb-13 21:30N 36°05' W 072°36'1 1.2
2018-Feb-13 21:00N 36°06' W 072°36'0 0.0
2018-Feb-13 20:45N 36°06' W 072°36'2 1.0
2018-Feb-13 19:15N 36°07' W 072°37'0 0.0
2018-Feb-13 19:00N 36°07' W 072°37'1 0.3
2018-Feb-13 16:00N 36°07' W 072°38'0 0.0
2018-Feb-13 15:45N 36°07' W 072°38'0 0.0
2018-Feb-13 15:15N 36°07' W 072°38'0 0.0
2018-Feb-13 15:00N 36°07' W 072°38'0 0.0
2018-Feb-13 14:15N 36°07' W 072°38'0 0.0
2018-Feb-13 14:00N 36°07' W 072°38'0 1.9
2018-Feb-13 13:45N 36°07' W 072°38'0 0.0
2018-Feb-13 13:30N 36°07' W 072°38'0 0.0
2018-Feb-13 12:15N 36°07' W 072°38'0 0.0
2018-Feb-13 12:00N 36°07' W 072°38'0 0.0
2018-Feb-13 11:45N 36°07' W 072°38'1 0.6
2018-Feb-13 10:45N 36°06' W 072°38'1 1.2
2018-Feb-13 10:15N 36°07' W 072°38'0 0.6
2018-Feb-13 09:30N 36°07' W 072°39'0 1.9
2018-Feb-13 09:15N 36°07' W 072°38'0 0.0
2018-Feb-13 09:00N 36°07' W 072°38'1 0.6
2018-Feb-13 07:45N 36°07' W 072°39'0 0.0
2018-Feb-13 03:30N 36°07' W 072°39'0 0.0
2018-Feb-13 03:00N 36°07' W 072°39'0 0.0
2018-Feb-13 02:45N 36°07' W 072°39'1 0.8
2018-Feb-13 02:00N 36°08' W 072°39'1 2.4
2018-Feb-13 01:45N 36°07' W 072°39'1 2.4
2018-Feb-13 01:30N 36°08' W 072°39'1 3.1
2018-Feb-13 01:15N 36°07' W 072°40'2 7.5
2018-Feb-13 01:00N 36°08' W 072°38'0 0.6
2018-Feb-13 00:15N 36°08' W 072°38'0 0.0
2018-Feb-13 00:00N 36°08' W 072°38'0 1.9
2018-Feb-12 23:45N 36°08' W 072°39'0 0.0
2018-Feb-12 23:30N 36°08' W 072°39'0 0.0
2018-Feb-12 23:15N 36°08' W 072°39'1 0.6
2018-Feb-12 22:15N 36°08' W 072°39'0 0.0
2018-Feb-12 22:00N 36°08' W 072°39'0 1.9
2018-Feb-12 21:45N 36°08' W 072°38'1 0.8
2018-Feb-12 21:00N 36°07' W 072°38'2 1.0
2018-Feb-12 19:30N 36°07' W 072°40'729.0
2018-Feb-12 19:15N 36°03' W 072°48'0 0.0
2018-Feb-12 16:15N 36°03' W 072°48'0 0.0
2018-Feb-12 15:30N 36°03' W 072°48'3 3.6
2018-Feb-12 14:45N 36°02' W 072°51'0 0.0
2018-Feb-12 14:30N 36°02' W 072°51'0 0.0
2018-Feb-12 14:15N 36°02' W 072°51'0 1.9
2018-Feb-12 14:00N 36°02' W 072°52'310.8
2018-Feb-12 13:45N 36°01' W 072°55'0 0.0
2018-Feb-12 13:00N 36°01' W 072°55'0 0.0
2018-Feb-12 12:45N 36°01' W 072°55'0 0.0
2018-Feb-12 12:30N 36°01' W 072°55'310.8
2018-Feb-12 12:15N 35°59' W 072°58'0 0.5
2018-Feb-12 11:15N 35°59' W 072°57'0 1.9
2018-Feb-12 11:00N 35°59' W 072°58'310.0
2018-Feb-12 10:45N 35°59' W 073°01'0 0.0
2018-Feb-12 09:45N 35°59' W 073°01'313.7
2018-Feb-12 09:30N 35°57' W 073°04'10 6.8
2018-Feb-12 08:00N 35°51' W 073°14'0 0.0
2018-Feb-12 07:45N 35°51' W 073°14'3 0.6
2018-Feb-12 03:15N 35°49' W 073°17'0 0.0
2018-Feb-12 03:00N 35°49' W 073°17'2 2.1
2018-Feb-12 02:15N 35°49' W 073°19'0 0.0
2018-Feb-12 01:30N 35°49' W 073°19'2 2.7
2018-Feb-12 00:45N 35°47' W 073°20'0 0.0
2018-Feb-12 00:30N 35°47' W 073°20'2 6.3
2018-Feb-12 00:15N 35°46' W 073°22'0 1.9
2018-Feb-12 00:00N 35°46' W 073°22'311.2
2018-Feb-11 23:45N 35°44' W 073°24'1 0.5
2018-Feb-11 22:30N 35°43' W 073°24'2 9.2
2018-Feb-11 22:15N 35°42' W 073°26'0 0.5
2018-Feb-11 21:15N 35°42' W 073°27'0 0.0
2018-Feb-11 21:00N 35°42' W 073°27'3 2.1
2018-Feb-11 19:30N 35°40' W 073°29'7 2.3
2018-Feb-11 16:30N 35°34' W 073°35'0 0.0
2018-Feb-11 16:00N 35°34' W 073°35'2 7.6
2018-Feb-11 15:45N 35°33' W 073°37'0 0.0
2018-Feb-11 15:00N 35°33' W 073°37'0 0.0
2018-Feb-11 14:45N 35°33' W 073°37'1 1.2
2018-Feb-11 14:15N 35°32' W 073°37'2 7.6
2018-Feb-11 14:00N 35°31' W 073°38'0 0.0
2018-Feb-11 13:15N 35°31' W 073°38'0 0.0
2018-Feb-11 13:00N 35°31' W 073°38'1 3.1
2018-Feb-11 12:45N 35°31' W 073°38'0 0.0
2018-Feb-11 12:30N 35°31' W 073°38'2 3.1
2018-Feb-11 11:45N 35°29' W 073°40'0 2.0
2018-Feb-11 11:30N 35°29' W 073°41'2 7.6
2018-Feb-11 11:15N 35°28' W 073°43'0 0.0
2018-Feb-11 11:00N 35°28' W 073°43'0 0.0
2018-Feb-11 10:00N 35°28' W 073°43'2 9.3
2018-Feb-11 09:45N 35°26' W 073°44'0 0.0
2018-Feb-11 08:15N 35°26' W 073°44'727.4
2018-Feb-11 08:00N 35°22' W 073°50'0 0.0
2018-Feb-11 03:30N 35°22' W 073°50'0 0.0
2018-Feb-11 02:45N 35°22' W 073°50'1 2.4
2018-Feb-11 02:30N 35°21' W 073°50'1 2.4
2018-Feb-11 02:00N 35°20' W 073°50'0 0.0
2018-Feb-11 01:45N 35°20' W 073°50'0 0.7
2018-Feb-11 01:00N 35°20' W 073°51'1 3.1
2018-Feb-11 00:45N 35°19' W 073°52'0 0.0
2018-Feb-11 00:30N 35°19' W 073°52'1 3.1
2018-Feb-11 00:15N 35°19' W 073°52'0 0.0
2018-Feb-11 00:00N 35°19' W 073°52'5 4.3
2018-Feb-10 22:45N 35°15' W 073°57'0 0.0
2018-Feb-10 22:30N 35°15' W 073°57'1 0.8
2018-Feb-10 21:30N 35°16' W 073°58'0 0.0
2018-Feb-10 21:15N 35°16' W 073°58'310.6
2018-Feb-10 21:00N 35°14' W 074°00'0 0.0
2018-Feb-10 19:45N 35°14' W 074°00'0 0.0
2018-Feb-10 19:30N 35°14' W 074°00'3 0.9
2018-Feb-10 16:15N 35°11' W 074°00'0 0.0
2018-Feb-10 15:15N 35°11' W 074°00'1 1.6
2018-Feb-10 14:30N 35°10' W 074°00'0 0.0
2018-Feb-10 13:45N 35°10' W 074°00'0 0.0
2018-Feb-10 13:30N 35°10' W 074°00'1 4.8
2018-Feb-10 13:15N 35°08' W 074°00'0 0.0
2018-Feb-10 13:00N 35°08' W 074°00'1 4.8
2018-Feb-10 12:45N 35°07' W 074°00'0 0.0
2018-Feb-10 12:15N 35°07' W 074°00'0 0.0
2018-Feb-10 12:00N 35°07' W 074°00'0 0.0
2018-Feb-10 11:45N 35°07' W 074°00'0 0.0
2018-Feb-10 11:30N 35°07' W 074°00'1 3.1
2018-Feb-10 11:15N 35°07' W 073°59'1 3.1
2018-Feb-10 11:00N 35°06' W 074°00'0 0.0
2018-Feb-10 10:30N 35°06' W 074°00'2 4.1
2018-Feb-10 10:00N 35°04' W 074°01'0 0.0
2018-Feb-10 09:00N 35°04' W 074°01'0 0.0
2018-Feb-10 08:45N 35°04' W 074°01'0 0.0
2018-Feb-10 08:30N 35°04' W 074°01'625.9
2018-Feb-10 08:15N 34°58' W 074°04'1 0.1
2018-Feb-10 03:00N 34°58' W 074°04'0 0.0
2018-Feb-10 02:45N 34°58' W 074°04'0 0.0
2018-Feb-10 02:15N 34°58' W 074°04'1 2.4
2018-Feb-10 02:00N 34°57' W 074°04'1 2.0
2018-Feb-10 01:15N 34°57' W 074°06'1 4.6
2018-Feb-10 01:00N 34°56' W 074°05'0 1.0
2018-Feb-10 00:30N 34°56' W 074°05'0 0.0
2018-Feb-10 00:15N 34°56' W 074°05'2 2.7
2018-Feb-09 23:30N 34°55' W 074°07'0 0.0
2018-Feb-09 23:15N 34°55' W 074°07'1 2.4
2018-Feb-09 22:45N 34°53' W 074°07'2 2.1
2018-Feb-09 21:45N 34°52' W 074°08'0 0.0
2018-Feb-09 21:30N 34°52' W 074°08'0 0.0
2018-Feb-09 20:00N 34°52' W 074°08'312.2
2018-Feb-09 19:45N 34°49' W 074°08'1 0.4
2018-Feb-09 16:30N 34°47' W 074°08'0 0.0
2018-Feb-09 15:45N 34°47' W 074°08'0 0.0
2018-Feb-09 15:30N 34°47' W 074°08'0 0.0
2018-Feb-09 15:00N 34°47' W 074°08'1 2.4
2018-Feb-09 14:45N 34°48' W 074°08'0 0.7
2018-Feb-09 14:00N 34°48' W 074°08'0 0.0
2018-Feb-09 13:45N 34°48' W 074°08'1 1.2
2018-Feb-09 13:15N 34°47' W 074°08'0 0.0
2018-Feb-09 13:00N 34°47' W 074°08'0 0.0
2018-Feb-09 12:00N 34°47' W 074°08'0 0.0
2018-Feb-09 11:45N 34°47' W 074°08'0 2.0
2018-Feb-09 11:30N 34°47' W 074°09'0 0.0
2018-Feb-09 11:00N 34°47' W 074°09'0 0.0
2018-Feb-09 10:15N 34°47' W 074°09'0 0.0
2018-Feb-09 10:00N 34°47' W 074°09'0 0.0
2018-Feb-09 09:30N 34°47' W 074°09'1 3.9
2018-Feb-09 09:15N 34°47' W 074°10'0 0.0
2018-Feb-09 08:45N 34°47' W 074°10'519.7
2018-Feb-09 08:30N 34°47' W 074°16'1 0.1
2018-Feb-09 03:15N 34°47' W 074°16'0 0.0
2018-Feb-09 02:45N 34°47' W 074°16'0 0.0
2018-Feb-09 02:30N 34°47' W 074°16'1 1.5
2018-Feb-09 01:45N 34°46' W 074°17'1 2.4
2018-Feb-09 01:30N 34°46' W 074°17'0 0.0
2018-Feb-09 01:00N 34°46' W 074°17'0 0.0
2018-Feb-09 00:45N 34°46' W 074°17'0 0.0
2018-Feb-09 00:30N 34°46' W 074°17'1 1.6
2018-Feb-09 00:00N 34°45' W 074°18'1 3.9
2018-Feb-08 23:45N 34°45' W 074°17'0 0.0
2018-Feb-08 23:30N 34°45' W 074°17'1 2.6
2018-Feb-08 23:00N 34°44' W 074°17'  

Dump ship's entire track history